Time;durP1;ratioP1;P1;durP2;ratioP2;P2;SDS_P1;SDS_P2;PMS_P1;PMS_P2;Temp;Humidity;BMP_temperature;BMP_pressure;BME280_temperature;BME280_humidity;BME280_pressure;Samples;Min_cycle;Max_cycle;Signal;HPM_P1;HPM_P2
2021/10/25 00:01:40;;;;;;;36.37;16.10;;;2.20;99.90;;;;;;4392772;32;20140;-69
2021/10/25 00:04:46;;;;;;;33.33;16.50;;;2.10;99.90;;;;;;4392746;32;20160;-69
2021/10/25 00:07:24;;;;;;;33.57;16.17;;;2.20;99.90;;;;;;4392860;32;20428;-69
2021/10/25 00:10:18;;;;;;;36.80;17.10;;;2.10;99.90;;;;;;4392706;32;20151;-69
2021/10/25 00:13:22;;;;;;;33.07;16.47;;;2.10;99.90;;;;;;4392075;32;20205;-68
2021/10/25 00:16:05;;;;;;;32.23;16.13;;;2.20;99.90;;;;;;4393412;32;20201;-68
2021/10/25 00:18:49;;;;;;;36.93;16.73;;;2.20;99.90;;;;;;4394265;32;20580;-68
2021/10/25 00:21:40;;;;;;;34.93;16.67;;;2.20;99.90;;;;;;4393006;32;20520;-68
2021/10/25 00:24:34;;;;;;;36.33;17.10;;;2.20;99.90;;;;;;4392147;32;20257;-68
2021/10/25 00:27:17;;;;;;;35.73;16.27;;;2.20;99.90;;;;;;4424364;32;20218;-68
2021/10/25 00:30:15;;;;;;;34.53;16.53;;;2.20;99.90;;;;;;4441488;32;20177;-68
2021/10/25 00:33:19;;;;;;;38.40;16.40;;;2.20;99.90;;;;;;4442115;32;20157;-69
2021/10/25 00:36:03;;;;;;;33.97;16.63;;;2.20;99.90;;;;;;4394052;32;20174;-70
2021/10/25 00:39:18;;;;;;;33.50;16.77;;;2.20;99.90;;;;;;4392181;32;20462;-68
2021/10/25 00:42:06;;;;;;;34.40;16.00;;;2.20;99.90;;;;;;4393932;32;20543;-68
2021/10/25 00:44:53;;;;;;;31.63;15.80;;;2.10;99.90;;;;;;4388052;32;20214;-68
2021/10/25 00:47:43;;;;;;;34.77;15.93;;;2.00;99.90;;;;;;4346395;33;20226;-68
2021/10/25 00:50:40;;;;;;;33.57;16.03;;;2.00;99.90;;;;;;4348885;33;20175;-68
2021/10/25 00:53:35;;;;;;;33.77;16.67;;;2.00;99.90;;;;;;4346008;33;20296;-68
2021/10/25 00:56:28;;;;;;;35.13;16.83;;;1.90;99.90;;;;;;4348752;33;20161;-68
2021/10/25 01:02:19;;;;;;;34.37;15.97;;;1.90;99.90;;;;;;4346617;33;20455;-69
2021/10/25 01:04:59;;;;;;;36.50;17.27;;;2.00;99.90;;;;;;4347319;33;20157;-69
2021/10/25 01:07:27;;;;;;;33.03;16.13;;;1.90;99.90;;;;;;4348749;33;20152;-69
2021/10/25 01:09:54;;;;;;;34.80;16.47;;;1.90;99.90;;;;;;4348803;33;20385;-69
2021/10/25 01:12:21;;;;;;;29.93;16.07;;;1.90;99.90;;;;;;4374466;32;20147;-69
2021/10/25 01:14:49;;;;;;;31.90;16.33;;;1.90;99.90;;;;;;4423996;32;20142;-69
2021/10/25 01:17:16;;;;;;;30.30;15.57;;;1.80;99.90;;;;;;4422448;32;20453;-69
2021/10/25 01:19:43;;;;;;;33.47;16.63;;;1.80;99.90;;;;;;4441023;32;20203;-68
2021/10/25 01:22:10;;;;;;;32.07;17.00;;;1.90;99.90;;;;;;4443134;32;20143;-69
2021/10/25 01:24:37;;;;;;;31.23;16.63;;;1.90;99.90;;;;;;4445438;32;20162;-70
2021/10/25 01:27:04;;;;;;;32.67;16.50;;;1.80;99.90;;;;;;4439275;32;20127;-69
2021/10/25 01:29:31;;;;;;;33.67;16.27;;;1.80;99.90;;;;;;4441318;32;20172;-69
2021/10/25 01:31:57;;;;;;;31.70;16.77;;;1.80;99.90;;;;;;4440409;32;20147;-69
2021/10/25 01:34:24;;;;;;;30.10;16.13;;;1.80;99.90;;;;;;4439370;32;20182;-69
2021/10/25 01:36:51;;;;;;;32.63;17.30;;;1.80;99.90;;;;;;4440419;32;20130;-69
2021/10/25 01:39:17;;;;;;;32.97;16.47;;;1.70;99.90;;;;;;4439311;32;20177;-69
2021/10/25 01:41:44;;;;;;;34.10;16.83;;;1.80;99.90;;;;;;4441229;32;20326;-69
2021/10/25 01:44:12;;;;;;;32.07;16.27;;;1.70;99.90;;;;;;4441103;32;20423;-69
2021/10/25 01:46:42;;;;;;;33.27;16.10;;;1.70;99.90;;;;;;4440516;32;20123;-69
2021/10/25 01:49:09;;;;;;;33.27;17.13;;;1.60;99.90;;;;;;4440054;32;20135;-69
2021/10/25 01:51:36;;;;;;;36.00;18.13;;;1.60;99.90;;;;;;4440952;32;20335;-69
2021/10/25 01:54:03;;;;;;;36.20;17.83;;;1.60;99.90;;;;;;4439932;32;20163;-69
2021/10/25 01:56:30;;;;;;;35.17;16.93;;;1.60;99.90;;;;;;4439097;32;20130;-70
2021/10/25 01:58:57;;;;;;;32.30;16.57;;;1.70;99.90;;;;;;4438595;32;20138;-69
2021/10/25 02:01:24;;;;;;;32.30;17.13;;;1.70;99.90;;;;;;4438880;32;20179;-69
2021/10/25 02:03:52;;;;;;;32.57;16.97;;;1.70;99.90;;;;;;4440571;32;20126;-69
2021/10/25 02:06:18;;;;;;;33.30;17.33;;;1.50;99.90;;;;;;4438944;32;20456;-69
2021/10/25 02:08:46;;;;;;;33.47;17.03;;;1.60;99.90;;;;;;4439043;32;20215;-68
2021/10/25 02:11:14;;;;;;;34.83;18.00;;;1.60;99.90;;;;;;4439099;32;20186;-68
2021/10/25 02:13:41;;;;;;;36.70;17.70;;;1.60;99.90;;;;;;4439147;32;20123;-68
2021/10/25 02:16:09;;;;;;;35.47;18.20;;;1.60;99.90;;;;;;4440271;32;20175;-68
2021/10/25 02:18:36;;;;;;;34.30;17.60;;;1.60;99.90;;;;;;4438908;32;20127;-68
2021/10/25 02:21:03;;;;;;;37.70;18.83;;;1.60;99.90;;;;;;4440563;32;20238;-69
2021/10/25 02:23:30;;;;;;;34.93;17.33;;;1.60;99.90;;;;;;4439655;32;20166;-69
2021/10/25 02:25:57;;;;;;;33.63;17.40;;;1.60;99.90;;;;;;4438501;32;20139;-68
2021/10/25 02:28:24;;;;;;;34.93;17.60;;;1.60;99.90;;;;;;4440055;32;20180;-69
2021/10/25 02:30:52;;;;;;;38.17;17.27;;;1.60;99.90;;;;;;4440631;32;20412;-69
2021/10/25 02:33:20;;;;;;;34.53;18.10;;;1.50;99.90;;;;;;4439106;32;20424;-69
2021/10/25 02:35:48;;;;;;;37.53;17.13;;;1.50;99.90;;;;;;4440649;32;20183;-69
2021/10/25 02:38:15;;;;;;;39.73;18.53;;;1.50;99.90;;;;;;4440619;32;20158;-69
2021/10/25 02:40:42;;;;;;;35.80;17.73;;;1.50;99.90;;;;;;4438852;32;20126;-69
2021/10/25 02:43:09;;;;;;;37.40;17.93;;;1.50;99.90;;;;;;4440570;32;20412;-69
2021/10/25 02:45:37;;;;;;;38.53;18.07;;;1.60;99.90;;;;;;4440328;32;20150;-70
2021/10/25 02:48:05;;;;;;;33.90;17.27;;;1.50;99.90;;;;;;4440389;32;20123;-69
2021/10/25 02:50:32;;;;;;;37.47;17.17;;;1.50;99.90;;;;;;4440381;32;20143;-68
2021/10/25 02:53:00;;;;;;;35.87;17.90;;;1.40;99.90;;;;;;4438821;32;20180;-68
2021/10/25 02:55:27;;;;;;;37.97;19.47;;;1.40;99.90;;;;;;4440354;32;20207;-69
2021/10/25 02:57:54;;;;;;;36.53;17.60;;;1.40;99.90;;;;;;4439231;32;20131;-69
2021/10/25 03:00:21;;;;;;;39.57;18.47;;;1.40;99.90;;;;;;4438670;32;20203;-69
2021/10/25 03:02:48;;;;;;;38.73;19.20;;;1.40;99.90;;;;;;4440444;32;20135;-69
2021/10/25 03:05:16;;;;;;;38.17;19.27;;;1.40;99.90;;;;;;4440234;32;20173;-69
2021/10/25 03:07:43;;;;;;;37.77;20.30;;;1.40;99.90;;;;;;4440578;32;20131;-69
2021/10/25 03:10:10;;;;;;;37.27;19.30;;;1.30;99.90;;;;;;4439325;32;20127;-69
2021/10/25 03:12:37;;;;;;;41.53;20.13;;;1.30;99.90;;;;;;4443100;32;20412;-69
2021/10/25 03:15:05;;;;;;;38.53;19.13;;;1.30;99.90;;;;;;4442218;32;20154;-69
2021/10/25 03:17:32;;;;;;;38.07;19.47;;;1.30;99.90;;;;;;4443092;32;20123;-69
2021/10/25 03:20:01;;;;;;;37.97;19.90;;;1.20;99.90;;;;;;4442677;32;20134;-69
2021/10/25 03:22:28;;;;;;;40.97;19.77;;;1.20;99.90;;;;;;4441309;32;20149;-68
2021/10/25 03:24:55;;;;;;;35.97;18.67;;;1.30;99.90;;;;;;4441292;32;20198;-69
2021/10/25 03:27:22;;;;;;;39.07;19.70;;;1.30;99.90;;;;;;4441321;32;20462;-69
2021/10/25 03:29:49;;;;;;;35.93;18.90;;;1.30;99.90;;;;;;4442906;32;20127;-69
2021/10/25 03:32:15;;;;;;;40.27;19.47;;;1.30;99.90;;;;;;4441047;32;20163;-69
2021/10/25 03:34:42;;;;;;;37.17;18.53;;;1.30;99.90;;;;;;4441082;32;20130;-68
2021/10/25 03:37:09;;;;;;;33.90;18.07;;;1.30;99.90;;;;;;4443038;32;20123;-69
2021/10/25 03:39:38;;;;;;;35.07;17.67;;;1.30;99.90;;;;;;4441172;32;20122;-68
2021/10/25 03:42:13;;;;;;;35.83;18.57;;;1.30;99.90;;;;;;4442922;32;20166;-68
2021/10/25 03:44:50;;;;;;;36.93;19.03;;;1.30;99.90;;;;;;4442740;32;20122;-69
2021/10/25 03:47:22;;;;;;;37.37;18.87;;;1.30;99.90;;;;;;4441956;32;20150;-69
2021/10/25 03:50:11;;;;;;;36.70;19.43;;;1.30;99.90;;;;;;4440717;32;20234;-70
2021/10/25 03:55:37;;;;;;;39.57;19.57;;;1.30;99.90;;;;;;4407459;32;20262;-69
2021/10/25 03:58:33;;;;;;;37.50;18.97;;;1.20;99.90;;;;;;4408143;32;20192;-68
2021/10/25 06:07:58;;;;;;;44.03;19.80;;;0.90;99.90;;;;;;4470341;32;20424;-68
2021/10/25 06:10:32;;;;;;;43.90;20.87;;;1.00;99.90;;;;;;4452193;32;20503;-69
2021/10/25 06:13:04;;;;;;;47.13;21.67;;;1.00;99.90;;;;;;4453965;32;20378;-68
2021/10/25 06:15:38;;;;;;;50.60;21.97;;;1.10;99.90;;;;;;4452379;32;20404;-69
2021/10/25 06:18:09;;;;;;;50.53;21.57;;;1.20;99.90;;;;;;4453610;32;20126;-69
2021/10/25 06:20:38;;;;;;;47.00;21.27;;;1.30;99.90;;;;;;4453503;32;20130;-70
2021/10/25 06:23:10;;;;;;;40.90;20.87;;;1.40;99.90;;;;;;4453689;32;20176;-69
2021/10/25 06:25:38;;;;;;;42.30;20.40;;;1.50;99.90;;;;;;4453808;32;20178;-68
2021/10/25 06:28:06;;;;;;;40.87;19.67;;;1.50;99.90;;;;;;4451993;32;20127;-70
2021/10/25 06:30:35;;;;;;;43.30;20.83;;;1.60;99.90;;;;;;4452262;32;20127;-67
2021/10/25 06:33:04;;;;;;;42.23;19.50;;;1.70;99.90;;;;;;4449186;32;20191;-67
2021/10/25 06:35:32;;;;;;;37.70;18.57;;;1.80;99.90;;;;;;4451387;32;20351;-70
2021/10/25 06:38:12;;;;;;;37.67;18.30;;;1.80;99.90;;;;;;4453491;32;20159;-70
2021/10/25 06:40:39;;;;;;;40.07;18.03;;;1.90;99.90;;;;;;4453620;32;20181;-70
2021/10/25 06:43:09;;;;;;;38.30;18.57;;;2.00;99.90;;;;;;4452811;32;20553;-69
2021/10/25 06:45:35;;;;;;;37.67;18.13;;;2.00;99.90;;;;;;4453203;32;20197;-69
2021/10/25 06:48:02;;;;;;;36.90;17.93;;;2.10;99.90;;;;;;4451378;32;20149;-68
2021/10/25 06:50:30;;;;;;;33.90;17.73;;;2.10;99.90;;;;;;4453279;32;20337;-69
2021/10/25 06:53:07;;;;;;;39.07;18.13;;;2.20;99.90;;;;;;4453297;32;20181;-69
2021/10/25 06:55:34;;;;;;;34.97;17.87;;;2.30;99.90;;;;;;4452818;32;20405;-69
2021/10/25 06:58:04;;;;;;;35.77;17.63;;;2.30;99.90;;;;;;4452900;32;20197;-69
2021/10/25 10:05:04;;;;;;;20.03;11.03;;;16.40;92.30;;;;;;4468050;32;20196;-67
2021/10/25 10:07:40;;;;;;;21.47;11.10;;;15.60;94.10;;;;;;4450091;32;20460;-69
2021/10/25 10:10:22;;;;;;;20.47;11.10;;;16.10;94.30;;;;;;4401323;32;69968;-69
2021/10/25 10:13:14;;;;;;;16.90;10.70;;;16.80;92.80;;;;;;4405820;32;20196;-70
2021/10/25 10:15:58;;;;;;;17.03;10.30;;;17.40;91.30;;;;;;4405267;32;20135;-69
2021/10/25 10:19:05;;;;;;;19.10;10.80;;;18.00;90.60;;;;;;4404570;32;20396;-69
2021/10/25 10:21:33;;;;;;;17.83;9.83;;;18.40;87.00;;;;;;4406497;32;20155;-68
2021/10/25 10:24:16;;;;;;;17.50;9.63;;;18.60;84.30;;;;;;4406853;32;20400;-69
2021/10/25 10:27:03;;;;;;;17.00;9.20;;;18.00;83.10;;;;;;4407160;32;20463;-68
2021/10/25 10:31:49;;;;;;;17.27;9.30;;;18.10;83.20;;;;;;4382035;32;20268;-68
2021/10/25 10:34:24;;;;;;;14.20;8.97;;;17.60;84.00;;;;;;4406727;32;20143;-66
2021/10/25 10:37:04;;;;;;;16.23;9.00;;;17.60;83.00;;;;;;4391751;32;20174;-66
2021/10/25 10:40:06;;;;;;;14.30;8.47;;;18.20;82.30;;;;;;4393243;32;20179;-65
2021/10/25 10:42:41;;;;;;;15.97;9.20;;;18.70;79.60;;;;;;4391497;32;20197;-66
2021/10/25 10:45:37;;;;;;;15.47;8.37;;;17.90;79.60;;;;;;4393240;32;20197;-66
2021/10/25 10:48:17;;;;;;;16.20;9.60;;;18.10;80.80;;;;;;4407684;32;20142;-66
2021/10/25 10:51:13;;;;;;;16.30;8.53;;;18.60;78.40;;;;;;4393197;32;20206;-66
2021/10/25 10:54:30;;;;;;;17.03;8.87;;;18.80;78.10;;;;;;4389617;32;20364;-65
2021/10/25 10:57:22;;;;;;;15.17;8.63;;;18.70;76.80;;;;;;4388486;32;20187;-66
2021/10/25 11:00:00;;;;;;;17.33;9.00;;;18.90;75.70;;;;;;4390595;32;20606;-68
2021/10/25 11:02:29;;;;;;;16.50;8.70;;;19.40;74.80;;;;;;4390842;32;20206;-69
2021/10/25 11:05:15;;;;;;;16.77;9.00;;;19.80;73.50;;;;;;4388952;32;20184;-66
2021/10/25 11:08:11;;;;;;;16.27;9.40;;;20.20;71.90;;;;;;4390685;32;20191;-66
2021/10/25 11:11:39;;;;;;;12.70;8.23;;;20.60;70.80;;;;;;4389060;32;20621;-79
2021/10/25 11:14:39;;;;;;;15.33;8.23;;;20.30;69.60;;;;;;4389026;32;20465;-64
2021/10/25 11:17:27;;;;;;;13.47;8.03;;;20.60;79.90;;;;;;4360554;32;20218;-72
2021/10/25 11:20:07;;;;;;;13.03;7.87;;;21.00;78.10;;;;;;4359947;32;20560;-67
2021/10/25 11:22:43;;;;;;;13.60;7.70;;;21.20;74.60;;;;;;4360200;32;20186;-67
2021/10/25 11:25:10;;;;;;;11.73;7.73;;;20.90;70.60;;;;;;4359214;32;20201;-69
2021/10/25 11:27:43;;;;;;;15.90;8.57;;;20.90;75.00;;;;;;4361809;32;20253;-71
2021/10/25 11:30:20;;;;;;;17.93;8.90;;;21.10;74.40;;;;;;4360388;32;20194;-71
2021/10/25 11:33:06;;;;;;;15.90;8.73;;;21.30;70.70;;;;;;4372284;32;20246;-71
2021/10/25 11:35:54;;;;;;;14.10;8.37;;;21.30;73.40;;;;;;4361655;32;20168;-70
2021/10/25 11:38:27;;;;;;;13.20;8.53;;;21.60;73.40;;;;;;4359854;32;20172;-71
2021/10/25 11:41:12;;;;;;;15.60;8.83;;;22.30;69.50;;;;;;4358256;32;20195;-71
2021/10/25 11:43:47;;;;;;;15.17;8.97;;;23.20;66.40;;;;;;4362760;32;20202;-71
2021/10/25 11:46:41;;;;;;;13.32;8.80;;;23.50;67.70;;;;;;4349984;33;20187;-71
2021/10/25 11:49:22;;;;;;;17.08;9.20;;;24.20;61.50;;;;;;4375873;32;20480;-71
2021/10/25 11:52:07;;;;;;;15.93;7.93;;;24.70;60.20;;;;;;4378065;32;20260;-71
2021/10/25 11:54:51;;;;;;;13.77;8.43;;;24.80;59.90;;;;;;4378083;32;20164;-71
2021/10/25 11:57:48;;;;;;;15.18;8.75;;;25.20;57.90;;;;;;4374477;32;20225;-71
2021/10/25 12:00:30;;;;;;;13.40;8.38;;;25.50;56.80;;;;;;4365801;32;20203;-71
2021/10/25 12:03:32;;;;;;;15.82;8.40;;;25.50;55.90;;;;;;4379990;32;20615;-73
2021/10/25 12:06:23;;;;;;;14.48;7.85;;;25.20;53.90;;;;;;4349475;33;20218;-73
2021/10/25 12:09:02;;;;;;;13.07;8.23;;;24.90;53.80;;;;;;4361889;32;20322;-72
2021/10/25 12:11:54;;;;;;;12.00;7.93;;;24.30;55.30;;;;;;4363464;32;20155;-72
2021/10/25 12:14:37;;;;;;;11.82;7.45;;;24.60;55.80;;;;;;4363611;32;20182;-72
2021/10/25 12:17:20;;;;;;;12.43;7.53;;;24.50;54.10;;;;;;4361937;32;20230;-73
2021/10/25 12:19:55;;;;;;;11.60;7.07;;;24.70;54.90;;;;;;4361781;32;20187;-72
2021/10/25 12:22:43;;;;;;;12.73;7.47;;;24.90;55.20;;;;;;4363564;32;20136;-72
2021/10/25 12:25:12;;;;;;;11.13;6.93;;;24.50;55.30;;;;;;4361985;32;20205;-68
2021/10/25 12:27:48;;;;;;;12.67;7.30;;;24.10;54.90;;;;;;4357321;32;20159;-67
2021/10/25 12:30:29;;;;;;;11.40;6.73;;;24.40;56.50;;;;;;4348068;33;20576;-69
2021/10/25 12:33:00;;;;;;;12.67;7.50;;;24.80;55.10;;;;;;4361742;33;20527;-67
2021/10/25 12:35:53;;;;;;;10.38;6.80;;;24.60;54.90;;;;;;4359606;33;20187;-67
2021/10/25 12:38:41;;;;;;;11.12;6.70;;;24.10;56.10;;;;;;4361039;32;20167;-68
2021/10/25 12:41:14;;;;;;;11.63;6.53;;;23.20;55.30;;;;;;4361372;32;20275;-67
2021/10/25 12:44:02;;;;;;;11.43;6.47;;;22.20;57.00;;;;;;4384900;32;20176;-69
2021/10/25 12:46:43;;;;;;;12.33;6.57;;;22.30;60.30;;;;;;4377837;32;20195;-67
2021/10/25 12:49:24;;;;;;;10.33;6.50;;;22.40;59.70;;;;;;4378898;32;20179;-67
2021/10/25 12:52:14;;;;;;;13.17;6.00;;;21.70;57.90;;;;;;4333981;33;20588;-68
2021/10/25 12:54:57;;;;;;;11.20;6.00;;;21.70;59.30;;;;;;4346535;33;20204;-67
2021/10/25 12:57:41;;;;;;;10.43;6.00;;;21.50;60.50;;;;;;4333932;33;20268;-69
2021/10/25 13:03:14;;;;;;;10.77;5.53;;;20.90;61.50;;;;;;4333888;33;20179;-68
2021/10/25 13:06:08;;;;;;;11.27;6.07;;;20.00;63.50;;;;;;4336160;33;20222;-68
2021/10/25 13:08:48;;;;;;;9.80;6.50;;;18.70;66.20;;;;;;4346152;33;20564;-68
2021/10/25 13:12:17;;;;;;;12.40;6.03;;;17.60;68.90;;;;;;4346027;33;20445;-69
2021/10/25 13:15:07;;;;;;;11.53;6.20;;;17.30;72.00;;;;;;4333754;33;20168;-68
2021/10/25 13:17:45;;;;;;;11.87;5.70;;;16.90;75.50;;;;;;4376714;32;20179;-70
2021/10/25 13:20:41;;;;;;;12.50;6.33;;;16.50;77.30;;;;;;4376394;32;20233;-70
2021/10/25 13:23:32;;;;;;;13.47;5.93;;;16.20;76.90;;;;;;4372100;32;20190;-67
2021/10/25 13:26:36;;;;;;;12.13;6.13;;;16.00;78.20;;;;;;4378540;32;20192;-68
2021/10/25 13:29:21;;;;;;;14.73;6.10;;;15.70;80.50;;;;;;4377717;32;20225;-66
2021/10/25 13:34:59;;;;;;;16.83;6.20;;;15.40;82.40;;;;;;4318795;33;20271;-67
2021/10/25 13:37:36;;;;;;;12.27;6.17;;;15.10;83.50;;;;;;4331614;33;20207;-68
2021/10/25 13:40:22;;;;;;;12.37;6.20;;;14.90;83.90;;;;;;4319418;33;20371;-68
2021/10/25 13:43:17;;;;;;;13.73;6.43;;;14.80;85.40;;;;;;4319790;33;20176;-68
2021/10/25 13:45:48;;;;;;;10.77;6.00;;;14.50;85.30;;;;;;4320192;33;20172;-69
2021/10/25 13:51:38;;;;;;;12.47;5.90;;;13.80;87.30;;;;;;4317335;33;20189;-68
2021/10/25 13:54:14;;;;;;;11.37;6.10;;;13.60;90.10;;;;;;4314764;33;20180;-67
2021/10/25 13:57:27;;;;;;;11.50;5.60;;;13.50;91.20;;;;;;4317815;33;20177;-68
2021/10/25 13:59:56;;;;;;;10.33;5.93;;;13.30;91.00;;;;;;4290340;33;20217;-67
2021/10/25 14:02:55;;;;;;;12.67;6.20;;;13.20;91.20;;;;;;4290969;33;20204;-67
2021/10/25 14:05:35;;;;;;;11.70;6.27;;;13.00;90.80;;;;;;4289761;33;20181;-67
2021/10/25 14:08:26;;;;;;;13.70;6.40;;;12.90;90.70;;;;;;4290386;33;20196;-68
2021/10/25 14:11:17;;;;;;;12.53;6.33;;;12.60;91.60;;;;;;4360898;32;20168;-68
2021/10/25 14:17:10;;;;;;;13.60;6.60;;;12.30;91.80;;;;;;4359507;33;20553;-69
2021/10/25 14:19:45;;;;;;;11.97;6.03;;;12.20;93.00;;;;;;4362011;32;20171;-66
2021/10/25 14:22:29;;;;;;;11.03;6.23;;;12.10;92.90;;;;;;4287400;33;20196;-67
2021/10/25 14:25:06;;;;;;;11.93;6.03;;;12.00;93.00;;;;;;4287324;33;20241;-68
2021/10/25 14:28:01;;;;;;;12.73;6.13;;;11.90;92.90;;;;;;4309713;33;20169;-67
2021/10/25 14:30:46;;;;;;;11.70;6.43;;;11.90;93.70;;;;;;4302717;33;20431;-65
2021/10/25 14:33:27;;;;;;;14.70;6.27;;;11.80;93.60;;;;;;4316505;33;20176;-65
2021/10/25 14:36:10;;;;;;;12.93;6.63;;;11.60;94.10;;;;;;4317369;33;20195;-66
2021/10/25 14:42:21;;;;;;;11.40;6.00;;;11.40;95.50;;;;;;4276186;33;20255;-67
2021/10/25 14:45:08;;;;;;;14.30;6.47;;;11.30;96.00;;;;;;4275184;33;20244;-67
2021/10/25 14:53:59;;;;;;;11.73;6.03;;;10.90;96.90;;;;;;4230684;34;20267;-69
2021/10/25 14:56:46;;;;;;;12.17;6.20;;;10.90;97.80;;;;;;4231997;34;20576;-68
2021/10/25 14:59:32;;;;;;;12.20;6.00;;;10.80;98.50;;;;;;4246702;33;20213;-69
2021/10/25 15:05:30;;;;;;;12.67;6.40;;;10.50;99.30;;;;;;4204585;34;20286;-68
2021/10/25 15:08:50;;;;;;;15.37;6.17;;;10.40;99.70;;;;;;4210542;34;20183;-68
2021/10/25 15:11:31;;;;;;;11.77;6.10;;;10.30;99.70;;;;;;4205461;33;20179;-68
2021/10/25 15:14:15;;;;;;;;;;;;;;;;;;;;;
2021/10/25 15:16:53;;;;;;;11.00;6.20;;;10.10;99.90;;;;;;4244416;33;20326;-68
2021/10/25 15:19:35;;;;;;;12.63;6.37;;;10.10;99.90;;;;;;4246903;33;20174;-68
2021/10/25 15:22:21;;;;;;;13.27;6.63;;;9.90;99.90;;;;;;4248417;33;20182;-69
2021/10/25 15:24:58;;;;;;;13.57;6.70;;;9.90;99.90;;;;;;4246517;33;20235;-68
2021/10/25 15:27:33;;;;;;;13.53;6.10;;;9.80;99.90;;;;;;4246811;33;20235;-69
2021/10/25 15:30:14;;;;;;;14.33;6.80;;;9.70;99.90;;;;;;4253475;33;20532;-67
2021/10/25 15:33:03;;;;;;;14.60;6.73;;;9.60;99.90;;;;;;4290996;33;20213;-68
2021/10/25 15:35:53;;;;;;;13.50;6.43;;;9.60;99.90;;;;;;4275144;33;20249;-67
2021/10/25 15:38:49;;;;;;;12.07;6.73;;;9.50;99.90;;;;;;4275011;33;20197;-69
2021/10/25 15:41:33;;;;;;;11.83;6.37;;;9.50;99.90;;;;;;4274826;33;20196;-67
2021/10/25 15:44:18;;;;;;;13.80;6.83;;;9.40;99.90;;;;;;4320499;33;20397;-68
2021/10/25 15:46:53;;;;;;;14.90;7.07;;;9.30;99.90;;;;;;4322425;33;20239;-67
2021/10/25 15:49:32;;;;;;;12.40;6.37;;;9.30;99.90;;;;;;4320046;33;20260;-67
2021/10/25 15:52:06;;;;;;;12.67;6.73;;;9.20;99.90;;;;;;4321508;33;20559;-68
2021/10/25 15:55:02;;;;;;;13.17;6.50;;;9.10;99.90;;;;;;4291364;33;20216;-68
2021/10/25 15:57:39;;;;;;;12.50;6.83;;;9.00;99.90;;;;;;4293044;33;20482;-68
2021/10/25 16:00:28;;;;;;;14.13;6.90;;;9.00;99.90;;;;;;4291322;33;20201;-67
2021/10/25 16:03:31;;;;;;;14.60;6.50;;;8.90;99.90;;;;;;4291698;33;20307;-68
2021/10/25 16:06:28;;;;;;;15.97;6.93;;;8.80;99.90;;;;;;4290877;33;20177;-66
2021/10/25 16:09:07;;;;;;;14.57;6.83;;;8.80;99.90;;;;;;4290656;33;20520;-66
2021/10/25 16:11:50;;;;;;;12.03;6.67;;;8.70;99.90;;;;;;4291892;33;20270;-67
2021/10/25 16:14:39;;;;;;;15.07;6.97;;;8.70;99.90;;;;;;4319612;33;20176;-67
2021/10/25 16:17:20;;;;;;;15.10;7.37;;;8.60;99.90;;;;;;4320045;33;20173;-68
2021/10/25 16:19:52;;;;;;;13.73;6.80;;;8.60;99.90;;;;;;4321563;33;20199;-69
2021/10/25 16:22:36;;;;;;;15.07;7.53;;;8.50;99.90;;;;;;4325376;33;20235;-67
2021/10/25 16:25:21;;;;;;;15.87;7.87;;;8.50;99.90;;;;;;4346525;33;20204;-68
2021/10/25 16:28:04;;;;;;;13.50;7.07;;;8.40;99.90;;;;;;4346294;33;20161;-68
2021/10/25 16:33:57;;;;;;;14.33;7.20;;;8.30;99.90;;;;;;4345892;33;20178;-67
2021/10/25 16:36:51;;;;;;;13.77;7.27;;;8.30;99.90;;;;;;4346712;33;20204;-67
2021/10/25 16:39:47;;;;;;;13.23;7.97;;;8.30;99.90;;;;;;4346828;33;20194;-67
2021/10/25 16:42:27;;;;;;;16.27;7.57;;;8.20;99.90;;;;;;4334661;33;20214;-68
2021/10/25 16:44:57;;;;;;;15.17;7.70;;;8.20;99.90;;;;;;4347105;33;20432;-67
2021/10/25 16:47:38;;;;;;;13.93;7.80;;;8.10;99.90;;;;;;4348125;33;20255;-68
2021/10/25 16:50:31;;;;;;;18.10;7.90;;;8.10;99.90;;;;;;4333109;33;20203;-69
2021/10/25 17:10:38;;;;;;;17.83;9.47;;;7.90;99.90;;;;;;4321686;33;20178;-68
2021/10/25 17:13:28;;;;;;;19.63;9.97;;;7.90;99.90;;;;;;4331610;33;20615;-66
2021/10/25 17:15:59;;;;;;;21.13;9.40;;;7.80;99.90;;;;;;4330661;33;20255;-67
2021/10/25 17:19:03;;;;;;;22.13;10.57;;;7.80;99.90;;;;;;4318794;33;20292;-70
2021/10/25 17:21:44;;;;;;;21.67;10.83;;;7.90;99.90;;;;;;4332393;33;20181;-70
2021/10/25 17:24:22;;;;;;;22.30;11.07;;;7.80;99.90;;;;;;4333172;33;20234;-69
2021/10/25 17:27:05;;;;;;;22.20;11.57;;;7.80;99.90;;;;;;4331034;33;20216;-71
2021/10/25 17:29:42;;;;;;;21.87;11.43;;;7.70;99.90;;;;;;4330759;33;20262;-69
2021/10/25 17:32:19;;;;;;;24.90;11.53;;;7.80;99.90;;;;;;4330425;33;20499;-69
2021/10/25 17:34:57;;;;;;;23.10;11.50;;;7.70;99.90;;;;;;4331364;33;20266;-71
2021/10/25 17:37:37;;;;;;;23.17;11.60;;;7.70;99.90;;;;;;4319961;33;20247;-70
2021/10/25 17:40:24;;;;;;;22.83;12.13;;;7.70;99.90;;;;;;4330633;33;20342;-69
2021/10/25 17:43:13;;;;;;;21.03;11.60;;;7.70;99.90;;;;;;4331035;33;20560;-71
2021/10/25 17:46:10;;;;;;;25.47;12.07;;;7.60;99.90;;;;;;4332827;33;20234;-69
2021/10/25 17:48:50;;;;;;;25.23;11.43;;;7.60;99.90;;;;;;4379549;32;20222;-71
2021/10/25 17:51:28;;;;;;;24.77;12.03;;;7.60;99.90;;;;;;4376158;32;20187;-71
2021/10/25 17:54:13;;;;;;;21.13;11.27;;;7.60;99.90;;;;;;4376076;32;20223;-70
2021/10/25 17:56:57;;;;;;;20.77;10.93;;;7.60;99.90;;;;;;4376687;32;20222;-70
2021/10/25 17:59:48;;;;;;;19.33;11.10;;;7.60;99.90;;;;;;4376001;32;20225;-71
2021/10/25 18:05:37;;;;;;;21.43;11.30;;;7.50;99.90;;;;;;4347416;33;20193;-71
2021/10/25 18:08:39;;;;;;;21.83;11.13;;;7.50;99.90;;;;;;4347864;33;20187;-71
2021/10/25 18:11:40;;;;;;;23.07;11.27;;;7.50;99.90;;;;;;4330491;33;20309;-70
2021/10/25 18:14:47;;;;;;;20.30;10.70;;;7.40;99.90;;;;;;4302054;33;20163;-70
2021/10/25 18:17:24;;;;;;;21.73;11.23;;;7.40;99.90;;;;;;4301854;33;20229;-71
2021/10/25 18:19:53;;;;;;;22.40;11.30;;;7.40;99.90;;;;;;4301174;33;20191;-71
2021/10/25 18:22:27;;;;;;;22.80;11.27;;;7.30;99.90;;;;;;4300760;33;20456;-70
2021/10/25 18:25:25;;;;;;;22.37;11.40;;;7.30;99.90;;;;;;4272407;33;20204;-70
2021/10/25 18:28:16;;;;;;;25.27;10.77;;;7.30;99.90;;;;;;4272112;33;20221;-70
2021/10/25 18:30:49;;;;;;;22.70;11.07;;;7.30;99.90;;;;;;4271946;33;20306;-70
2021/10/25 18:33:34;;;;;;;20.23;10.80;;;7.30;99.90;;;;;;4272455;33;20244;-70
2021/10/25 18:36:10;;;;;;;22.77;11.20;;;7.30;99.90;;;;;;4272719;33;20189;-70
2021/10/25 18:38:46;;;;;;;23.50;11.67;;;7.20;99.90;;;;;;4284727;33;20185;-69
2021/10/25 18:41:56;;;;;;;22.23;11.30;;;7.20;99.90;;;;;;4299626;33;20177;-70
2021/10/25 18:44:42;;;;;;;24.50;11.40;;;7.20;99.90;;;;;;4303162;33;20206;-70
2021/10/25 18:47:16;;;;;;;20.90;10.80;;;7.20;99.90;;;;;;4298663;33;20236;-70
2021/10/25 18:50:09;;;;;;;;;;;;;;;;;;;;;
2021/10/25 18:52:43;;;;;;;21.90;11.20;;;7.10;99.90;;;;;;4351185;32;20203;-70
2021/10/25 18:55:18;;;;;;;22.50;11.83;;;7.10;99.90;;;;;;4350228;33;20184;-69
2021/10/25 18:58:06;;;;;;;19.93;11.13;;;7.10;99.90;;;;;;4351934;32;20602;-70
2021/10/25 19:00:50;;;;;;;23.57;11.33;;;7.10;99.90;;;;;;4352173;32;20206;-71
2021/10/25 19:03:37;;;;;;;21.63;11.30;;;7.00;99.90;;;;;;4377926;32;20213;-70
2021/10/25 19:06:15;;;;;;;21.67;11.03;;;7.00;99.90;;;;;;4379627;32;20192;-70
2021/10/25 19:09:05;;;;;;;26.30;11.27;;;7.00;99.90;;;;;;4379120;32;20183;-70
2021/10/25 19:11:48;;;;;;;25.43;12.53;;;7.00;99.90;;;;;;4380651;32;20164;-71
2021/10/25 19:14:57;;;;;;;23.03;12.00;;;7.00;99.90;;;;;;4379134;32;20176;-70
2021/10/25 19:17:43;;;;;;;22.03;11.47;;;6.90;99.90;;;;;;4380417;32;20245;-69
2021/10/25 19:20:17;;;;;;;22.40;12.10;;;6.90;99.90;;;;;;4374050;32;20551;-70
2021/10/25 19:23:10;;;;;;;24.13;11.90;;;6.90;99.90;;;;;;4376359;32;20186;-68
2021/10/25 19:26:17;;;;;;;24.50;12.30;;;6.90;99.90;;;;;;4361237;32;20252;-69
2021/10/25 19:28:48;;;;;;;25.30;12.43;;;6.90;99.90;;;;;;4328533;33;20188;-70
2021/10/25 19:32:00;;;;;;;22.70;12.00;;;6.80;99.90;;;;;;4334091;33;20211;-68
2021/10/25 19:34:49;;;;;;;23.90;12.17;;;6.80;99.90;;;;;;4218272;34;20201;-69
2021/10/25 19:37:31;;;;;;;25.77;12.53;;;6.80;99.90;;;;;;4208350;34;20522;-69
2021/10/25 19:40:07;;;;;;;23.70;12.40;;;6.80;99.90;;;;;;4216961;34;20226;-68
2021/10/25 19:43:02;;;;;;;24.90;12.80;;;6.80;99.90;;;;;;4220091;34;20175;-70
2021/10/25 19:45:43;;;;;;;27.50;12.37;;;6.70;99.90;;;;;;4218535;34;20246;-68
2021/10/25 19:48:46;;;;;;;25.60;12.80;;;6.70;99.90;;;;;;4217839;34;20181;-68
2021/10/25 19:51:25;;;;;;;25.27;12.57;;;6.70;99.90;;;;;;4207754;34;20205;-69
2021/10/25 19:54:04;;;;;;;28.80;13.10;;;6.70;99.90;;;;;;4206933;34;20238;-68
2021/10/25 19:56:37;;;;;;;24.23;12.93;;;6.70;99.90;;;;;;4217466;34;20628;-69
2021/10/25 19:59:06;;;;;;;23.90;12.43;;;6.60;99.90;;;;;;4219284;34;20252;-68